SBJP/JPA METAR and TAF weather

Enter ICAO airport designator
Station Type Date Time Source
SBJP METAR 2022/01/26 20:00 UTC NOAA

SBJP 262000Z 07006KT 9999 SCT025 BKN070 25/23 Q1010


Station Type Date Time Source
SBJP Decoded METAR 2022/01/26 20:00 UTC NOAA

Joao Pessoa, Brazil (SBJP) 07-06S 034-52W
Jan 26, 2022 - 03:00 PM EST / 2022.01.26 2000 UTC
Wind: from the ENE (070 degrees) at 7 MPH (6 KT):0
Visibility: greater than 7 mile(s):0
Sky conditions: mostly cloudy
Temperature: 77 F (25 C)
Dew Point: 73 F (23 C)
Relative Humidity: 88%
Pressure (altimeter): 29.83 in. Hg (1010 hPa)
ob: SBJP 262000Z 07006KT 9999 SCT025 BKN070 25/23 Q1010
cycle: 20

Station Type Date Time Source
SBJP TAF 2022/01/26 18:33 UTC NOAA

TAF TAF SBJP 261629Z 2618/2718 09012KT 7000 SCT023 TN24/2709Z TX31/2716Z
BECMG 2618/2620 09007KT
BECMG 2701/2703 18005KT PROB40 2706/2710 SHRA BKN020 FEW025TCU
BECMG 2710/2713 10010KT BKN027
RMK PHC

Example: see airport list